Time;durP1;ratioP1;P1;durP2;ratioP2;P2;SDS_P1;SDS_P2;PMS_P1;PMS_P2;Temp;Humidity;BMP_temperature;BMP_pressure;BME280_temperature;BME280_humidity;BME280_pressure;Samples;Min_cycle;Max_cycle;Signal;HPM_P1;HPM_P2
2023/04/02 00:00:27;;;;;;;3.53;1.40;;;4.70;99.90;;;;;;4961392;28;20054;-75
2023/04/02 00:02:53;;;;;;;4.18;1.40;;;4.20;99.90;;;;;;4978285;28;20130;-74
2023/04/02 00:05:30;;;;;;;3.15;1.48;;;4.70;99.90;;;;;;4977749;28;20395;-75
2023/04/02 00:07:59;;;;;;;4.18;1.67;;;5.00;99.90;;;;;;4978361;28;20062;-75
2023/04/02 00:10:34;;;;;;;4.50;1.25;;;4.20;99.90;;;;;;4960458;28;20051;-75
2023/04/02 00:13:08;;;;;;;3.20;1.20;;;4.30;99.90;;;;;;4960350;28;20101;-75
2023/04/02 00:15:36;;;;;;;3.50;1.30;;;3.90;99.90;;;;;;4977639;28;20047;-74
2023/04/02 00:18:03;;;;;;;3.85;1.55;;;4.10;99.90;;;;;;4961275;28;20130;-74
2023/04/02 00:20:34;;;;;;;3.38;1.35;;;4.20;99.90;;;;;;4977403;28;20373;-75
2023/04/02 00:22:59;;;;;;;1.70;1.10;;;3.90;99.90;;;;;;4959904;28;20093;-75
2023/04/02 00:25:27;;;;;;;4.13;1.33;;;4.20;99.90;;;;;;4960413;28;20086;-75
2023/04/02 00:27:54;;;;;;;3.65;1.58;;;4.10;99.90;;;;;;4977299;28;20142;-75
2023/04/02 00:30:20;;;;;;;3.15;1.55;;;4.10;99.90;;;;;;4977312;28;20050;-75
2023/04/02 00:32:47;;;;;;;2.80;1.35;;;3.80;99.90;;;;;;4977226;28;20121;-75
2023/04/02 00:35:37;;;;;;;3.22;1.40;;;3.80;99.90;;;;;;4977153;28;20061;-75
2023/04/02 00:38:03;;;;;;;3.60;1.60;;;3.70;99.90;;;;;;4977204;28;20069;-74
2023/04/02 00:40:30;;;;;;;4.00;1.67;;;3.70;99.90;;;;;;4977063;28;20551;-75
2023/04/02 00:42:58;;;;;;;3.35;1.58;;;3.90;99.90;;;;;;4944789;28;20058;-75
2023/04/02 00:45:35;;;;;;;4.40;1.50;;;4.30;99.90;;;;;;4960712;28;20047;-75
2023/04/02 00:48:27;;;;;;;4.35;1.80;;;4.30;99.90;;;;;;4977546;28;20532;-75
2023/04/02 00:50:54;;;;;;;4.15;1.55;;;3.50;99.90;;;;;;4960235;28;20094;-74
2023/04/02 00:53:28;;;;;;;4.47;1.35;;;3.70;99.90;;;;;;4976678;28;20059;-75
2023/04/02 00:56:00;;;;;;;4.97;1.95;;;3.90;99.90;;;;;;4959717;28;20056;-74
2023/04/02 00:58:32;;;;;;;5.80;1.50;;;3.60;99.90;;;;;;4977636;28;20129;-74
2023/04/02 01:00:58;;;;;;;5.07;1.63;;;3.40;99.90;;;;;;4977529;28;20376;-75
2023/04/02 01:03:34;;;;;;;4.30;1.23;;;4.00;99.90;;;;;;4977405;28;20126;-75
2023/04/02 01:06:09;;;;;;;5.50;1.50;;;3.30;99.90;;;;;;4976440;28;20489;-75
2023/04/02 01:08:35;;;;;;;3.83;1.50;;;3.80;99.90;;;;;;4976625;28;20464;-75
2023/04/02 01:11:22;;;;;;;3.83;1.27;;;3.50;99.90;;;;;;4976824;28;20047;-75
2023/04/02 01:14:25;;;;;;;6.20;2.03;;;3.30;99.90;;;;;;4977096;28;20051;-75
2023/04/02 01:17:20;;;;;;;4.75;1.65;;;3.30;99.90;;;;;;4977267;28;20047;-74
2023/04/02 01:19:45;;;;;;;5.97;1.27;;;3.20;99.90;;;;;;4969365;28;20059;-74
2023/04/02 01:22:42;;;;;;;3.58;1.13;;;3.60;99.90;;;;;;4943386;28;20496;-75
2023/04/02 01:25:16;;;;;;;3.70;1.80;;;3.20;99.90;;;;;;4976799;28;20054;-75
2023/04/02 01:27:55;;;;;;;3.17;1.20;;;3.50;99.90;;;;;;4959993;28;20050;-75
2023/04/02 01:30:22;;;;;;;4.20;1.20;;;3.20;99.90;;;;;;4976225;28;20050;-75
2023/04/02 01:32:48;;;;;;;2.45;1.10;;;3.70;99.90;;;;;;4976158;28;20049;-75
2023/04/02 01:35:14;;;;;;;3.45;1.00;;;3.60;99.90;;;;;;4959007;28;20060;-75
2023/04/02 01:37:45;;;;;;;1.30;0.80;;;3.90;99.90;;;;;;4976056;28;20051;-74
2023/04/02 01:40:22;;;;;;;3.03;1.02;;;4.00;99.90;;;;;;4976625;28;20397;-74
2023/04/02 01:43:07;;;;;;;2.92;1.08;;;2.90;99.90;;;;;;4975931;28;20105;-75
2023/04/02 01:45:33;;;;;;;2.20;0.90;;;3.60;99.90;;;;;;4975883;28;20125;-74
2023/04/02 01:48:03;;;;;;;4.45;1.25;;;3.30;99.90;;;;;;4975830;28;20054;-75
2023/04/02 01:50:38;;;;;;;4.05;1.48;;;2.90;99.90;;;;;;4959065;28;20050;-75
2023/04/02 01:53:09;;;;;;;2.95;1.00;;;3.00;99.90;;;;;;4975761;28;20078;-75
2023/04/02 01:55:42;;;;;;;3.70;1.23;;;3.20;99.90;;;;;;4976512;28;20412;-75
2023/04/02 01:58:10;;;;;;;1.67;0.90;;;3.10;99.90;;;;;;4975749;28;20125;-75
2023/04/02 02:00:45;;;;;;;4.47;1.00;;;3.00;99.90;;;;;;4975580;28;20516;-75
2023/04/02 02:03:12;;;;;;;3.50;1.00;;;3.20;99.90;;;;;;4958629;28;20046;-74
2023/04/02 02:05:38;;;;;;;2.03;0.90;;;2.80;99.90;;;;;;4975527;28;20110;-75
2023/04/02 02:08:39;;;;;;;3.60;0.90;;;3.50;99.90;;;;;;4975507;28;20050;-74
2023/04/02 02:11:06;;;;;;;2.38;1.00;;;2.80;99.90;;;;;;4975468;28;20046;-74
2023/04/02 02:13:32;;;;;;;2.40;0.65;;;2.90;99.90;;;;;;4958253;28;20075;-75
2023/04/02 02:15:59;;;;;;;1.92;0.80;;;2.80;99.90;;;;;;4958409;28;20047;-75
2023/04/02 02:18:26;;;;;;;3.00;0.70;;;3.20;99.90;;;;;;4975855;28;20354;-75
2023/04/02 02:20:53;;;;;;;1.92;0.80;;;3.20;99.90;;;;;;4975158;28;20043;-75
2023/04/02 02:23:20;;;;;;;3.13;0.85;;;3.70;99.90;;;;;;4958028;28;20054;-75
2023/04/02 02:25:46;;;;;;;3.78;0.75;;;3.60;99.90;;;;;;4958685;28;20381;-74
2023/04/02 02:28:32;;;;;;;3.15;0.75;;;3.50;99.90;;;;;;4975776;28;20055;-75
2023/04/02 02:31:04;;;;;;;2.60;0.80;;;2.50;99.90;;;;;;4975831;28;20047;-75
2023/04/02 02:33:51;;;;;;;2.22;0.55;;;3.10;99.90;;;;;;4976010;28;20384;-75
2023/04/02 02:36:56;;;;;;;3.83;0.68;;;2.50;99.90;;;;;;4942324;28;20110;-75
2023/04/02 02:39:29;;;;;;;4.03;0.98;;;2.50;99.90;;;;;;4964734;28;20066;-75
2023/04/02 02:42:02;;;;;;;2.15;0.82;;;2.30;99.90;;;;;;4975581;28;20046;-75
2023/04/02 02:44:32;;;;;;;3.08;0.73;;;2.70;99.90;;;;;;4958441;28;20467;-75
2023/04/02 02:47:17;;;;;;;3.25;0.60;;;2.60;99.90;;;;;;4974995;28;20150;-75
2023/04/02 02:49:46;;;;;;;1.70;0.60;;;1.70;99.90;;;;;;4960839;28;20082;-74
2023/04/02 02:52:18;;;;;;;3.75;0.70;;;2.90;99.90;;;;;;4978158;28;20485;-74
2023/04/02 02:54:53;;;;;;;1.25;0.50;;;2.90;99.90;;;;;;4981852;28;20143;-74
2023/04/02 02:57:24;;;;;;;1.77;0.60;;;3.10;99.90;;;;;;4982217;28;20086;-74
2023/04/02 02:59:51;;;;;;;2.25;0.65;;;2.90;99.90;;;;;;4962344;28;20106;-75
2023/04/02 03:02:17;;;;;;;1.02;0.52;;;3.40;99.90;;;;;;4941821;28;20382;-75
2023/04/02 03:04:50;;;;;;;3.30;0.68;;;2.60;99.90;;;;;;4941951;28;20047;-74
2023/04/02 03:07:18;;;;;;;2.03;0.55;;;2.70;99.90;;;;;;4974731;28;20050;-75
2023/04/02 03:10:03;;;;;;;2.60;0.75;;;2.40;99.90;;;;;;4957902;28;20046;-75
2023/04/02 03:12:41;;;;;;;3.00;0.70;;;2.20;99.90;;;;;;4975020;28;20443;-75
2023/04/02 03:15:34;;;;;;;1.67;0.60;;;2.20;99.90;;;;;;4957487;28;20051;-75
2023/04/02 03:18:12;;;;;;;2.15;0.50;;;2.20;99.90;;;;;;4958438;28;20385;-75
2023/04/02 03:21:10;;;;;;;3.45;0.50;;;2.10;99.90;;;;;;4974560;28;20086;-75
2023/04/02 03:23:44;;;;;;;4.05;0.52;;;2.80;99.90;;;;;;4943509;28;20061;-75
2023/04/02 03:26:28;;;;;;;2.65;1.15;;;2.10;99.90;;;;;;4957499;28;20565;-74
2023/04/02 03:29:00;;;;;;;2.13;0.60;;;2.10;99.90;;;;;;4958378;28;20047;-74
2023/04/02 03:31:37;;;;;;;2.58;0.60;;;2.70;99.90;;;;;;4975649;28;20077;-73
2023/04/02 03:34:25;;;;;;;3.58;0.57;;;2.00;99.90;;;;;;4980079;28;20499;-73
2023/04/02 03:37:04;;;;;;;3.05;0.90;;;2.00;99.90;;;;;;4978737;28;20082;-73
2023/04/02 03:39:40;;;;;;;1.80;0.50;;;2.20;99.90;;;;;;4974865;28;20047;-74
2023/04/02 03:42:26;;;;;;;3.13;0.60;;;2.90;99.90;;;;;;4957994;28;20055;-74
2023/04/02 03:45:17;;;;;;;2.88;0.50;;;2.40;99.90;;;;;;4975026;28;20129;-74
2023/04/02 03:47:53;;;;;;;2.65;0.60;;;2.60;99.90;;;;;;4958116;28;20046;-74
2023/04/02 03:50:32;;;;;;;1.10;0.50;;;2.00;99.90;;;;;;4974342;28;20051;-74
2023/04/02 03:53:00;;;;;;;1.92;0.60;;;1.90;99.90;;;;;;4974444;28;20554;-74
2023/04/02 03:55:30;;;;;;;2.80;0.55;;;2.40;99.90;;;;;;4974788;28;20061;-74
2023/04/02 03:58:02;;;;;;;1.15;0.60;;;2.50;99.90;;;;;;4977255;28;20133;-74
2023/04/02 04:01:02;;;;;;;3.10;0.80;;;2.00;99.90;;;;;;4977839;28;20046;-74
2023/04/02 04:03:42;;;;;;;2.75;0.88;;;2.00;99.90;;;;;;4961024;28;20054;-74
2023/04/02 04:06:15;;;;;;;2.13;0.40;;;1.90;99.90;;;;;;4978383;28;20105;-74
2023/04/02 04:08:53;;;;;;;3.10;0.60;;;1.80;99.90;;;;;;4961522;28;20051;-74
2023/04/02 04:11:26;;;;;;;2.80;0.70;;;2.10;99.90;;;;;;4960951;28;20049;-75
2023/04/02 04:14:17;;;;;;;1.70;0.50;;;2.10;99.90;;;;;;4977669;28;20051;-74
2023/04/02 04:16:52;;;;;;;1.48;0.70;;;2.00;99.90;;;;;;4960802;28;20068;-74
2023/04/02 04:19:31;;;;;;;1.48;0.60;;;1.80;99.90;;;;;;4978034;28;20054;-75
2023/04/02 04:22:29;;;;;;;3.13;0.60;;;2.40;99.90;;;;;;4960173;28;20152;-74
2023/04/02 04:24:56;;;;;;;1.95;0.50;;;2.00;99.90;;;;;;4960584;28;20054;-75
2023/04/02 04:27:33;;;;;;;2.63;0.82;;;2.40;99.90;;;;;;4960337;28;20130;-74
2023/04/02 04:30:23;;;;;;;3.22;0.60;;;2.60;99.90;;;;;;4977858;28;20097;-74
2023/04/02 04:32:57;;;;;;;2.65;0.68;;;1.80;99.90;;;;;;4977340;28;20108;-74
2023/04/02 04:35:26;;;;;;;2.58;0.63;;;2.30;99.90;;;;;;4977249;28;20078;-74
2023/04/02 04:38:02;;;;;;;4.88;1.10;;;2.30;99.90;;;;;;4977229;28;20110;-74
2023/04/02 04:40:35;;;;;;;4.80;0.82;;;1.90;99.90;;;;;;4978205;28;20050;-74
2023/04/02 04:43:06;;;;;;;13.57;0.90;;;2.20;99.90;;;;;;4960441;28;20051;-74
2023/04/02 04:45:49;;;;;;;6.07;0.70;;;2.50;99.90;;;;;;4977154;28;20058;-74
2023/04/02 04:48:21;;;;;;;1.63;0.60;;;1.90;99.90;;;;;;4977735;28;20047;-74
2023/04/02 04:50:58;;;;;;;6.45;0.63;;;2.10;99.90;;;;;;4977522;28;20053;-74
2023/04/02 04:53:26;;;;;;;3.03;0.63;;;1.90;99.90;;;;;;4977087;28;20058;-74
2023/04/02 04:55:55;;;;;;;2.28;0.57;;;2.30;99.90;;;;;;4976790;28;20059;-74
2023/04/02 04:58:42;;;;;;;3.80;0.60;;;2.10;99.90;;;;;;4977407;28;20058;-74
2023/04/02 05:01:39;;;;;;;2.92;1.23;;;1.80;99.90;;;;;;4977499;28;20054;-75
2023/04/02 05:04:11;;;;;;;1.70;0.60;;;1.80;99.90;;;;;;4976080;28;20066;-74
2023/04/02 05:06:43;;;;;;;2.45;0.52;;;1.70;99.90;;;;;;4976768;28;20539;-74
2023/04/02 05:09:23;;;;;;;1.13;0.50;;;1.70;99.90;;;;;;4975883;28;20042;-74
2023/04/02 05:11:58;;;;;;;2.25;0.60;;;2.30;99.90;;;;;;4960283;28;20054;-74
2023/04/02 05:14:38;;;;;;;2.28;0.50;;;2.60;99.90;;;;;;4977609;28;20381;-75
2023/04/02 05:17:16;;;;;;;4.03;0.68;;;1.80;99.90;;;;;;4976536;28;20046;-75
2023/04/02 05:20:08;;;;;;;2.13;0.73;;;2.70;99.90;;;;;;4976410;28;20050;-74
2023/04/02 05:22:40;;;;;;;4.90;0.55;;;1.80;99.90;;;;;;4962544;28;20051;-74
2023/04/02 05:25:18;;;;;;;2.40;0.63;;;1.70;99.90;;;;;;4976612;28;20404;-75
2023/04/02 05:28:06;;;;;;;2.15;0.63;;;1.80;99.90;;;;;;4977204;28;20437;-74
2023/04/02 05:31:00;;;;;;;2.95;0.70;;;1.70;99.90;;;;;;4976253;28;20047;-74
2023/04/02 05:33:27;;;;;;;2.17;0.82;;;1.70;99.90;;;;;;4976221;28;20061;-75
2023/04/02 05:35:59;;;;;;;3.70;0.75;;;2.30;99.90;;;;;;4976107;28;20055;-74
2023/04/02 05:38:28;;;;;;;2.13;0.50;;;2.30;99.90;;;;;;4976627;28;20133;-74
2023/04/02 05:41:26;;;;;;;3.13;0.60;;;1.80;99.90;;;;;;4976496;28;20379;-74
2023/04/02 05:44:07;;;;;;;3.22;0.60;;;2.60;99.90;;;;;;4961216;28;20471;-74
2023/04/02 05:46:56;;;;;;;2.85;0.50;;;1.80;99.90;;;;;;4958670;28;20117;-74
2023/04/02 05:49:39;;;;;;;8.73;0.70;;;1.70;99.90;;;;;;4959227;28;20432;-74
2023/04/02 05:52:19;;;;;;;3.30;0.55;;;1.70;99.90;;;;;;4976763;28;20065;-75
2023/04/02 05:54:53;;;;;;;3.85;0.60;;;1.90;99.90;;;;;;4975437;28;20160;-74
2023/04/02 05:57:24;;;;;;;2.50;0.40;;;2.60;99.90;;;;;;4976637;28;20062;-74
2023/04/02 05:59:56;;;;;;;3.75;0.70;;;2.80;99.90;;;;;;4975796;28;20046;-74
2023/04/02 06:02:35;;;;;;;2.08;0.45;;;2.50;99.90;;;;;;4975859;28;20065;-74
2023/04/02 06:05:15;;;;;;;1.42;0.43;;;1.90;99.90;;;;;;4958620;28;20063;-75
2023/04/02 06:07:58;;;;;;;3.30;0.85;;;2.30;99.90;;;;;;4975609;28;20461;-74
2023/04/02 06:10:31;;;;;;;2.40;0.60;;;1.90;99.90;;;;;;4975627;28;20043;-75
2023/04/02 06:13:02;;;;;;;4.15;0.60;;;3.00;99.90;;;;;;4976022;28;20290;-74
2023/04/02 06:15:29;;;;;;;3.13;0.80;;;2.30;99.90;;;;;;4975984;28;20129;-75
2023/04/02 06:18:12;;;;;;;2.92;0.60;;;3.00;99.90;;;;;;4975339;28;20057;-74
2023/04/02 06:20:38;;;;;;;3.72;0.50;;;2.80;99.90;;;;;;4958664;28;20055;-74
2023/04/02 06:23:14;;;;;;;1.27;0.60;;;2.30;99.90;;;;;;4958062;28;20393;-75
2023/04/02 06:25:58;;;;;;;2.53;0.60;;;2.50;99.90;;;;;;4975492;28;20053;-74
2023/04/02 06:28:30;;;;;;;1.00;0.50;;;2.50;99.90;;;;;;4975828;28;20381;-74
2023/04/02 06:31:01;;;;;;;2.40;0.50;;;2.70;99.90;;;;;;4975262;28;20121;-74
2023/04/02 06:33:27;;;;;;;2.50;0.98;;;3.10;99.90;;;;;;4958112;28;20038;-75
2023/04/02 06:35:54;;;;;;;1.95;0.50;;;3.10;99.90;;;;;;4975062;28;20039;-74
2023/04/02 06:38:25;;;;;;;4.22;0.70;;;3.10;99.90;;;;;;4941851;28;20054;-74
2023/04/02 06:40:57;;;;;;;2.70;0.60;;;2.60;99.90;;;;;;4975057;28;20050;-74
2023/04/02 06:43:32;;;;;;;1.27;0.60;;;2.50;99.90;;;;;;4975034;28;20172;-74
2023/04/02 06:46:01;;;;;;;5.50;0.70;;;3.50;99.90;;;;;;4975091;28;20057;-74
2023/04/02 06:48:30;;;;;;;1.58;0.50;;;3.10;99.90;;;;;;4975404;28;20062;-75
2023/04/02 06:51:06;;;;;;;1.20;0.50;;;3.10;99.90;;;;;;4974925;28;20051;-75
2023/04/02 06:53:45;;;;;;;2.53;0.70;;;3.10;99.90;;;;;;4974586;28;20054;-75
2023/04/02 06:56:32;;;;;;;1.83;0.52;;;3.30;99.90;;;;;;4974889;28;20511;-74
2023/04/02 06:58:58;;;;;;;3.20;0.40;;;3.00;99.90;;;;;;4975543;28;20054;-74
2023/04/02 07:01:32;;;;;;;2.92;0.60;;;3.40;99.90;;;;;;4957350;28;20121;-74
2023/04/02 07:03:58;;;;;;;3.70;0.45;;;3.30;99.90;;;;;;4942002;28;20061;-75
2023/04/02 07:06:24;;;;;;;2.15;0.50;;;3.00;99.90;;;;;;4974634;28;20046;-74
2023/04/02 07:08:50;;;;;;;2.78;0.43;;;3.30;99.90;;;;;;4974685;28;20046;-75
2023/04/02 07:11:20;;;;;;;2.00;0.57;;;3.60;99.90;;;;;;4957632;28;20051;-74
2023/04/02 07:13:47;;;;;;;2.25;0.52;;;3.30;99.90;;;;;;4974719;28;20050;-74
2023/04/02 07:16:25;;;;;;;1.10;0.50;;;3.60;99.90;;;;;;4974700;28;20465;-74
2023/04/02 07:18:51;;;;;;;1.98;0.88;;;3.20;99.90;;;;;;4958186;28;20108;-74
2023/04/02 07:21:17;;;;;;;2.30;0.50;;;3.50;99.90;;;;;;4974528;28;20074;-75
2023/04/02 07:23:43;;;;;;;2.63;0.50;;;3.40;99.90;;;;;;4941831;28;20046;-74
2023/04/02 07:26:13;;;;;;;3.15;0.50;;;3.60;99.90;;;;;;4974481;28;20043;-75
2023/04/02 07:28:39;;;;;;;2.80;0.55;;;3.60;99.90;;;;;;4974590;28;20051;-74
2023/04/02 07:31:15;;;;;;;1.98;0.50;;;4.50;99.90;;;;;;4974468;28;20551;-75
2023/04/02 07:33:41;;;;;;;3.25;1.35;;;3.80;99.90;;;;;;4961212;28;20055;-75
2023/04/02 07:36:09;;;;;;;1.38;0.40;;;3.80;99.90;;;;;;4961135;28;20047;-75
2023/04/02 07:38:35;;;;;;;0.77;0.30;;;3.40;99.90;;;;;;4978865;28;20051;-75
2023/04/02 07:41:05;;;;;;;3.00;0.50;;;4.00;99.90;;;;;;4978176;28;20181;-75
2023/04/02 07:43:31;;;;;;;3.08;0.40;;;3.50;99.90;;;;;;4961539;28;20054;-75
2023/04/02 07:45:57;;;;;;;1.83;0.40;;;3.70;99.90;;;;;;4979113;28;20104;-79
2023/04/02 07:48:22;;;;;;;0.80;0.40;;;3.90;99.90;;;;;;4979137;28;20043;-77
2023/04/02 07:50:48;;;;;;;1.27;0.55;;;4.60;99.90;;;;;;4978870;28;20508;-78
2023/04/02 07:53:28;;;;;;;3.85;0.60;;;4.00;99.90;;;;;;4961317;28;20062;-77
2023/04/02 07:55:55;;;;;;;1.52;0.30;;;4.00;99.90;;;;;;4978249;28;20090;-78
2023/04/02 07:58:21;;;;;;;2.65;0.47;;;4.20;99.90;;;;;;4979510;28;20054;-75
2023/04/02 08:00:46;;;;;;;3.65;0.40;;;4.00;99.90;;;;;;4981999;28;20106;-80
2023/04/02 08:03:12;;;;;;;1.65;0.40;;;3.90;99.90;;;;;;4956743;28;20137;-78
2023/04/02 08:05:38;;;;;;;1.25;0.70;;;4.00;99.90;;;;;;4969967;28;20126;-75
2023/04/02 08:08:04;;;;;;;3.25;0.40;;;4.60;99.90;;;;;;4962140;28;20484;-79
2023/04/02 08:10:30;;;;;;;2.65;0.50;;;4.20;99.90;;;;;;4977973;28;20085;-79
2023/04/02 08:12:56;;;;;;;3.10;0.50;;;4.10;99.90;;;;;;4977501;28;20190;-81
2023/04/02 08:15:22;;;;;;;2.83;0.57;;;4.40;99.90;;;;;;4977742;28;20043;-80
2023/04/02 08:17:47;;;;;;;1.25;0.30;;;4.10;99.90;;;;;;4960479;28;20436;-79
2023/04/02 08:20:18;;;;;;;3.83;0.47;;;4.20;99.90;;;;;;4945034;28;20060;-77
2023/04/02 08:22:45;;;;;;;2.40;0.50;;;4.10;99.90;;;;;;4978127;28;20038;-76
2023/04/02 08:25:11;;;;;;;5.30;0.55;;;4.20;99.90;;;;;;4977625;28;20097;-80
2023/04/02 08:27:37;;;;;;;1.05;0.40;;;5.00;99.90;;;;;;4960342;28;20046;-78
2023/04/02 08:30:05;;;;;;;2.13;0.40;;;4.20;99.90;;;;;;4977522;28;20392;-79
2023/04/02 08:32:30;;;;;;;3.55;0.47;;;4.40;99.90;;;;;;4977257;28;20503;-77
2023/04/02 08:34:56;;;;;;;1.38;0.60;;;4.70;99.90;;;;;;4978176;28;20055;-77
2023/04/02 08:37:22;;;;;;;1.05;0.38;;;4.90;99.90;;;;;;4977461;28;20057;-78
2023/04/02 08:39:47;;;;;;;2.28;0.40;;;4.60;99.90;;;;;;4978043;28;20101;-77
2023/04/02 08:42:17;;;;;;;2.60;0.60;;;4.80;99.90;;;;;;4986186;28;20070;-77
2023/04/02 08:45:06;;;;;;;1.90;0.60;;;4.90;99.90;;;;;;4968054;28;20053;-76
2023/04/02 08:47:36;;;;;;;1.50;0.38;;;4.80;99.90;;;;;;4962758;28;20409;-77
2023/04/02 08:50:14;;;;;;;1.00;0.40;;;5.20;99.90;;;;;;4977173;28;20043;-77
2023/04/02 08:52:40;;;;;;;3.10;0.60;;;4.80;99.90;;;;;;4977110;28;20093;-77
2023/04/02 08:55:46;;;;;;;2.28;0.55;;;4.70;99.90;;;;;;4976886;28;20133;-77
2023/04/02 08:58:37;;;;;;;2.38;0.40;;;4.90;99.90;;;;;;4977316;28;20500;-78
2023/04/02 09:01:05;;;;;;;2.95;0.80;;;5.10;99.90;;;;;;4977770;28;20043;-78
2023/04/02 09:03:50;;;;;;;4.43;0.50;;;4.90;99.90;;;;;;4977131;28;20070;-76
2023/04/02 09:06:18;;;;;;;1.90;0.52;;;4.90;99.90;;;;;;4976320;28;20157;-76
2023/04/02 09:08:47;;;;;;;2.50;0.50;;;5.00;99.90;;;;;;4959081;28;20046;-77
2023/04/02 09:11:22;;;;;;;1.00;0.35;;;5.40;99.90;;;;;;4958745;28;20051;-77
2023/04/02 09:13:54;;;;;;;1.88;0.35;;;5.30;99.90;;;;;;4959412;28;20113;-76
2023/04/02 09:16:36;;;;;;;0.80;0.30;;;5.10;99.90;;;;;;4976903;28;20047;-76
2023/04/02 09:19:17;;;;;;;2.85;0.75;;;5.10;99.90;;;;;;4976876;28;20046;-77
2023/04/02 09:22:01;;;;;;;2.90;0.40;;;5.50;99.90;;;;;;4976238;28;20055;-78
2023/04/02 09:24:26;;;;;;;1.13;0.30;;;5.20;99.90;;;;;;4976595;28;20057;-77
2023/04/02 09:26:52;;;;;;;1.45;0.60;;;5.40;99.90;;;;;;4959693;28;20054;-77
2023/04/02 09:29:51;;;;;;;3.78;0.80;;;5.20;99.90;;;;;;4975735;28;20043;-78
2023/04/02 09:32:48;;;;;;;3.03;0.50;;;5.30;99.90;;;;;;4961455;28;20133;-78
2023/04/02 09:35:15;;;;;;;2.13;0.40;;;5.20;99.90;;;;;;4976299;28;20046;-78
2023/04/02 09:37:43;;;;;;;2.15;0.40;;;5.30;99.90;;;;;;4959137;28;20050;-80
2023/04/02 09:40:25;;;;;;;1.50;0.50;;;5.60;99.90;;;;;;4975618;28;20563;-80
2023/04/02 09:43:11;;;;;;;1.90;0.40;;;5.50;99.90;;;;;;4958799;28;20038;-80
2023/04/02 09:45:38;;;;;;;2.20;0.40;;;5.90;99.90;;;;;;4975882;28;20057;-79
2023/04/02 09:48:35;;;;;;;1.08;0.30;;;6.00;99.90;;;;;;4958684;28;20134;-78
2023/04/02 09:51:20;;;;;;;1.67;0.35;;;6.20;99.90;;;;;;4975524;28;20101;-80
2023/04/02 09:54:01;;;;;;;1.85;0.65;;;5.80;99.90;;;;;;4958106;28;20244;-79
2023/04/02 09:56:27;;;;;;;2.03;0.40;;;5.90;99.90;;;;;;4975362;28;20415;-78
2023/04/02 09:59:11;;;;;;;1.38;0.40;;;5.90;99.90;;;;;;4958816;28;20054;-80
2023/04/02 10:01:40;;;;;;;1.77;0.30;;;5.90;99.90;;;;;;4975438;28;20489;-78
2023/04/02 10:04:26;;;;;;;1.73;0.50;;;6.30;99.90;;;;;;4958009;28;20086;-78
2023/04/02 10:06:56;;;;;;;0.60;0.35;;;6.20;99.90;;;;;;4957918;28;20066;-78
2023/04/02 10:09:32;;;;;;;1.48;0.85;;;6.40;99.90;;;;;;4975958;28;20117;-78
2023/04/02 10:12:01;;;;;;;1.17;0.57;;;6.10;99.90;;;;;;4958706;28;20489;-79
2023/04/02 10:14:48;;;;;;;1.88;0.32;;;6.40;99.90;;;;;;4975122;28;20054;-79
2023/04/02 10:17:23;;;;;;;2.35;0.40;;;6.40;99.90;;;;;;4974116;28;20058;-77
2023/04/02 10:20:05;;;;;;;1.10;0.82;;;6.40;99.90;;;;;;4958058;28;20110;-78
2023/04/02 10:22:31;;;;;;;3.50;0.50;;;6.50;99.90;;;;;;4958337;28;20054;-78
2023/04/02 10:24:58;;;;;;;1.80;0.30;;;6.50;99.90;;;;;;4957551;28;20059;-79
2023/04/02 10:28:19;;;;;;;1.10;0.40;;;6.60;99.90;;;;;;4974771;28;20082;-78
2023/04/02 10:31:06;;;;;;;0.93;0.30;;;6.80;99.90;;;;;;4952131;28;20065;-78
2023/04/02 10:33:46;;;;;;;1.15;0.40;;;6.60;99.90;;;;;;4958226;28;20512;-78
2023/04/02 10:36:49;;;;;;;2.55;0.40;;;6.60;99.90;;;;;;4974805;28;20043;-79
2023/04/02 10:39:24;;;;;;;0.63;0.30;;;6.60;99.90;;;;;;4975308;28;20130;-78
2023/04/02 10:42:06;;;;;;;2.30;0.40;;;6.60;99.90;;;;;;4974626;28;20504;-79
2023/04/02 10:45:08;;;;;;;2.80;0.38;;;6.80;99.90;;;;;;4975825;28;20507;-79
2023/04/02 10:47:45;;;;;;;1.17;0.32;;;6.50;99.90;;;;;;4953331;28;20094;-80
2023/04/02 10:50:24;;;;;;;1.33;0.45;;;6.70;99.90;;;;;;4974485;28;20047;-80
2023/04/02 10:53:09;;;;;;;0.63;0.20;;;7.00;99.90;;;;;;4975042;28;20047;-79
2023/04/02 10:55:41;;;;;;;2.47;0.30;;;7.10;99.90;;;;;;4936022;29;20103;-79
2023/04/02 10:58:19;;;;;;;0.80;0.20;;;7.00;99.90;;;;;;4936357;29;20418;-80
2023/04/02 11:00:46;;;;;;;0.63;0.30;;;6.90;99.90;;;;;;4935950;29;20079;-80
2023/04/02 11:03:17;;;;;;;1.45;0.52;;;7.10;99.90;;;;;;4936654;29;20434;-81
2023/04/02 11:05:46;;;;;;;1.17;0.35;;;7.30;99.90;;;;;;4919515;29;20482;-78
2023/04/02 11:08:30;;;;;;;1.17;0.30;;;7.30;99.90;;;;;;4936116;29;20094;-78
2023/04/02 11:11:04;;;;;;;1.15;0.22;;;7.30;99.90;;;;;;4934755;29;20134;-79
2023/04/02 11:13:49;;;;;;;1.45;0.30;;;7.70;99.90;;;;;;4936462;29;20047;-77
2023/04/02 11:16:15;;;;;;;2.30;0.45;;;7.50;99.90;;;;;;4935839;29;20139;-78
2023/04/02 11:18:42;;;;;;;0.45;0.30;;;7.40;99.90;;;;;;4935671;29;20139;-80
2023/04/02 11:21:38;;;;;;;2.00;0.20;;;7.70;99.90;;;;;;4919387;29;20043;-79
2023/04/02 11:24:04;;;;;;;1.88;0.40;;;7.50;99.90;;;;;;4930462;29;20493;-80
2023/04/02 11:26:30;;;;;;;1.85;0.40;;;7.70;99.90;;;;;;4936171;29;20577;-79
2023/04/02 11:29:20;;;;;;;1.58;0.30;;;7.70;99.90;;;;;;4936249;29;20084;-79
2023/04/02 11:31:48;;;;;;;3.75;0.40;;;7.80;99.90;;;;;;4935041;29;20107;-79
2023/04/02 11:34:35;;;;;;;0.95;0.30;;;7.60;99.90;;;;;;4936013;29;20462;-79
2023/04/02 11:37:03;;;;;;;1.33;0.32;;;7.80;99.90;;;;;;4936027;29;20056;-78
2023/04/02 11:40:09;;;;;;;2.42;0.30;;;7.60;99.90;;;;;;4935076;29;20394;-79
2023/04/02 11:42:49;;;;;;;3.03;0.40;;;7.80;99.90;;;;;;4846399;29;20045;-79
2023/04/02 11:45:26;;;;;;;2.47;0.30;;;7.60;99.90;;;;;;4931560;29;20454;-78
2023/04/02 11:47:58;;;;;;;1.13;0.28;;;7.50;99.90;;;;;;4936072;29;20138;-77
2023/04/02 11:50:41;;;;;;;1.05;0.20;;;7.50;99.90;;;;;;4935092;29;20048;-78
2023/04/02 11:53:13;;;;;;;0.40;0.20;;;7.50;99.90;;;;;;4936188;29;20054;-80
2023/04/02 11:56:42;;;;;;;1.83;0.30;;;7.60;99.90;;;;;;4935977;29;20107;-79
2023/04/02 11:59:48;;;;;;;1.10;0.28;;;7.80;99.90;;;;;;4877547;29;20057;-79
2023/04/02 12:02:27;;;;;;;2.47;0.30;;;7.90;99.90;;;;;;4876472;29;20072;-81
2023/04/02 12:05:16;;;;;;;1.00;0.28;;;8.00;99.90;;;;;;4935823;29;20059;-80
2023/04/02 12:08:04;;;;;;;1.65;0.30;;;8.10;99.90;;;;;;4935170;29;20087;-80
2023/04/02 12:11:00;;;;;;;1.45;0.30;;;8.30;99.90;;;;;;4935543;29;20062;-81
2023/04/02 12:13:47;;;;;;;0.73;0.30;;;8.30;99.90;;;;;;4934376;29;20059;-79
2023/04/02 12:16:13;;;;;;;0.47;0.20;;;8.50;99.90;;;;;;4936149;29;20054;-83
2023/04/02 12:18:45;;;;;;;0.45;0.20;;;8.50;99.90;;;;;;4937779;29;20086;-79
2023/04/02 12:21:19;;;;;;;0.88;0.30;;;8.50;99.90;;;;;;4939069;29;20127;-79
2023/04/02 12:23:47;;;;;;;1.13;0.22;;;8.40;99.90;;;;;;4938030;29;20060;-80
2023/04/02 12:26:35;;;;;;;0.40;0.30;;;8.40;99.90;;;;;;4939224;29;20047;-77
2023/04/02 12:29:26;;;;;;;0.85;0.30;;;8.30;99.90;;;;;;4938739;29;20091;-77
2023/04/02 12:31:55;;;;;;;2.17;0.30;;;8.30;99.90;;;;;;4939092;29;20489;-77
2023/04/02 12:34:23;;;;;;;2.47;0.20;;;8.30;99.90;;;;;;4938979;29;20047;-76
2023/04/02 12:37:01;;;;;;;0.88;0.20;;;8.40;99.90;;;;;;4938898;29;20048;-77
2023/04/02 12:39:28;;;;;;;1.50;0.30;;;8.60;99.90;;;;;;4939332;29;20047;-77
2023/04/02 12:41:55;;;;;;;1.17;0.20;;;8.60;99.90;;;;;;4939559;29;20043;-77
2023/04/02 12:44:24;;;;;;;1.27;0.43;;;8.40;99.90;;;;;;4938804;29;20052;-75
2023/04/02 12:46:51;;;;;;;2.05;0.32;;;8.40;99.90;;;;;;4937953;29;20134;-82
2023/04/02 12:49:31;;;;;;;1.08;0.25;;;8.40;99.90;;;;;;4938675;29;20055;-76
2023/04/02 12:52:00;;;;;;;1.08;0.25;;;8.50;99.90;;;;;;4939244;29;20127;-77
2023/04/02 12:54:26;;;;;;;1.17;0.20;;;8.50;99.90;;;;;;4959453;28;20070;-76
2023/04/02 12:56:52;;;;;;;0.60;0.20;;;8.60;99.90;;;;;;4960082;28;20113;-76
2023/04/02 12:59:33;;;;;;;1.58;0.30;;;8.70;99.90;;;;;;4976862;28;20436;-76
2023/04/02 13:02:01;;;;;;;2.63;0.40;;;8.60;99.90;;;;;;4976920;28;20481;-77
2023/04/02 13:04:27;;;;;;;1.25;0.30;;;8.70;99.90;;;;;;4976879;28;20051;-77
2023/04/02 13:06:54;;;;;;;1.40;0.20;;;8.70;99.90;;;;;;4959745;28;20049;-76
2023/04/02 13:09:41;;;;;;;0.73;0.20;;;8.60;99.90;;;;;;4976704;28;20047;-76
2023/04/02 13:12:23;;;;;;;0.73;0.30;;;8.70;99.90;;;;;;4976748;28;20074;-78
2023/04/02 13:14:55;;;;;;;0.57;0.20;;;8.70;99.90;;;;;;4977051;28;20136;-78
2023/04/02 13:17:46;;;;;;;1.10;0.40;;;8.70;99.90;;;;;;4959265;28;20094;-78
2023/04/02 13:20:37;;;;;;;1.10;0.20;;;8.80;99.90;;;;;;4959909;28;20477;-84
2023/04/02 13:23:27;;;;;;;4.05;0.40;;;8.80;99.90;;;;;;4976876;28;20047;-79
2023/04/02 13:25:54;;;;;;;1.20;0.40;;;8.90;99.90;;;;;;4976425;28;20137;-82
2023/04/02 13:28:21;;;;;;;1.20;0.38;;;8.90;99.90;;;;;;4976503;28;20047;-78
2023/04/02 13:30:47;;;;;;;0.32;0.22;;;8.90;99.90;;;;;;4958668;28;20109;-79
2023/04/02 13:33:14;;;;;;;0.43;0.20;;;8.90;99.90;;;;;;4976387;28;20133;-78
2023/04/02 13:35:40;;;;;;;1.35;0.30;;;8.90;99.90;;;;;;4977564;28;20050;-77
2023/04/02 13:38:07;;;;;;;1.58;0.30;;;8.80;99.90;;;;;;4978910;28;20061;-78
2023/04/02 13:40:35;;;;;;;0.88;0.20;;;8.90;99.90;;;;;;4980537;28;20209;-79